Dewsbury, United Kingdom
Current Conditions -  °F | °C
As of 6:20 PM on Saturday 25 Oct 2014 (Local Time) from EGNM Reporting Station
Scattered Clouds Scattered Clouds  
Wind Chill: 54°   Ceiling: Unl
Heat Index: 54°   Visibility: 6mi
Dew Point: 43°   Wind: 16mph
Humidity: 67%   Direction: 240°WSW
Pressure: 29.91"   Gusts: NA
Location:  53.69°N, 1.63°W
Report Text: EGNM 251720Z 24014KT 210V270 9999 SCT048 12/06 Q1013
Loading
Personal Weather Stations






























Interactive Weather Map
Tropical Storm Tracking
New forecast layout! Learn more

10-Day Weather Forecast

Advertisements
Track Severe Weather on mobile